AirNav   Bose ProFlight Aviation Headset
 
 1564 users online  

28KY Brandon Airdrome
Murray, Kentucky, USA

GOING TO MURRAY?


FAA INFORMATION EFFECTIVE 08 NOVEMBER 2018

Location

FAA Identifier: 28KY
Lat/Long: 36-34-33.2000N / 088-18-48.1410W
36-34.553333N / 088-18.802350W
36.5758889 / -88.3133725
(estimated)
Elevation: 525 ft. / 160 m (estimated)
Variation: 01E (1985)
From city: 1 mile S of MURRAY, KY
Time zone: UTC -6 (UTC -5 during Daylight Saving Time)
Zip code: 42071

Airport Operations

Airport use: Private use. Permission required prior to landing
Activation date: 06/1978
Control tower: no
ARTCC: MEMPHIS CENTER
FSS: LOUISVILLE FLIGHT SERVICE STATION
Attendance: UNATNDD
Wind indicator: yes
Segmented circle: no

Airport Communications

WX AWOS-3 at CEY (6 nm NW): 119.975 (270-489-2424)
WX AWOS-3 at PHT (15 nm S): 118.825 (731-644-0451)
WX AWOS-3 at M25 (17 nm NW): 120.625 (270-247-2094)

Nearby radio navigation aids

VOR radial/distance  VOR name  Freq  Var
CNGr133/36.2CUNNINGHAM VOR/DME113.1003E

 
NDB name  Hdg/Dist  Freq  Var  ID
TRAINER014/20.241000ETIQ - .. --.-
HUNTINGDON016/30.221702WHZD .... --.. -..

Airport Services

Runway Information

Runway 1/19

Dimensions: 2100 x 80 ft. / 640 x 24 m
Surface: turf
RUNWAY 1  RUNWAY 19
Traffic pattern: leftleft

Airport Ownership and Management from official FAA records

Ownership: Privately-owned
Owner: H. BRANDON
701 SOUTH 12TH ST
MURRAY, KY 42071
Phone 270-753-4389
CELL- 270-293-8885
Manager: H. BRANDON
701 SOUTH 12TH ST
MURRAY, KY 42071
Phone 270-753-4389

Airport Operational Statistics

Aircraft based on the field: 90
Single engine airplanes: 90
    

Instrument Procedures

There are no published instrument procedures at 28KY.

Some nearby airports with instrument procedures:

KCEY - Kyle-Oakley Field Airport (6 nm NW)
KPHT - Henry County Airport (15 nm S)
M25 - Mayfield Graves County Airport (17 nm NW)
KHZD - Carroll County Airport (30 nm S)
KUCY - Everett-Stewart Regional Airport (35 nm W)
 
Loc | Ops | Rwys | IFR | FBO | Links
Com | Nav | Svcs | Stats | Notes


 
Area around 28KY (Brandon Airdrome)
 
Road maps at: MapQuest Bing Google
 
Aerial photo
No photo
 
Sectional chart

 
Airport distance calculator
Flying to Brandon Airdrome? Find the distance to fly.

From to 28KY

Sunrise and sunset
Times for 13-Nov-2018
 Local
(UTC-6)
 Zulu
(UTC)
Morning civil twilight06:0312:03
Sunrise06:3012:30
Sunset16:4522:45
Evening civil twilight17:1323:13

Current date and time
Zulu (UTC)  13-Nov-2018 16:26:53
Local (UTC-6)  13-Nov-2018 10:26:53
 
METAR
KCEY 
6nm NW 
131615Z AUTO 33010G18KT 8SM OVC012 00/M01 A3040 RMK AO1
KPHT 
15nm S 
131615Z AUTO 34009KT 7SM OVC010 M00/M02 A3039 RMK A01
KM25 
17nm NW 
131615Z AUTO 00000KT 10SM OVC015 00/M02 A3042 RMK AO2
TAF
KPAH 
37nm NW 
131134Z 1312/1412 35012KT P6SM OVC012 FM131400 36014G22KT P6SM OVC018 FM131700 36013G21KT P6SM BKN020 FM131900 36011KT P6SM SCT250 FM140000 01009KT P6SM SCT250
KHOP 
40nm E 
130800Z 1308/1414 35010G15KT 8000 -SHRA OVC006 QNH3017INS BECMG 1311/1312 35010G15KT 9999 NSW OVC006 620202 QNH3023INS BECMG 1314/1315 35010G15KT 9999 OVC006 620152 QNH3028INS BECMG 1317/1318 35010G15KT 9999 OVC015 620206 QNH3032INS BECMG 1320/1321 35010G15KT 9999 BKN020 BKN210 QNH3034INS BECMG 1323/1324 01009KT 9999 SCT230 QNH3038INS TX03/1308Z TNM02/1408Z
KCKV 
43nm E 
131120Z 1312/1412 36011KT P6SM OVC012 TEMPO 1312/1314 5SM -DZ FM132200 35010KT P6SM BKN060 FM141100 03008KT P6SM SCT250
NOTAMs
Click for the latest NOTAMs
NOTAMs are issued by the DoD/FAA and will open in a separate window not controlled by AirNav.

 

 
 

Would you like to see your business listed on this page?

 If your business provides an interesting product or service to pilots, flight crews, aircraft, or users of the Brandon Airdrome, you should consider listing it here.  To start the listing process, click on the button below
 
Add a business
 

Other Pages about Brandon Airdrome

Update a link
 
Copyright © AirNav, LLC. All rights reserved. Privacy Policy  Contact